sensor_id;sensor_type;location;lat;lon;timestamp;P1;durP1;ratioP1;P2;durP2;ratioP2
2562;SDS011;1291;51.420;6.970;2023-02-11T00:00:54;40.13;;;25.67;;
2562;SDS011;1291;51.420;6.970;2023-02-11T00:03:20;35.20;;;24.33;;
2562;SDS011;1291;51.420;6.970;2023-02-11T00:05:45;37.90;;;25.77;;
2562;SDS011;1291;51.420;6.970;2023-02-11T00:08:20;39.00;;;25.33;;
2562;SDS011;1291;51.420;6.970;2023-02-11T00:10:45;39.23;;;25.30;;
2562;SDS011;1291;51.420;6.970;2023-02-11T00:13:16;40.30;;;24.43;;
2562;SDS011;1291;51.420;6.970;2023-02-11T00:15:41;36.00;;;24.10;;
2562;SDS011;1291;51.420;6.970;2023-02-11T00:18:06;40.10;;;24.83;;
2562;SDS011;1291;51.420;6.970;2023-02-11T00:20:32;39.33;;;23.73;;
2562;SDS011;1291;51.420;6.970;2023-02-11T00:22:57;41.10;;;24.63;;
2562;SDS011;1291;51.420;6.970;2023-02-11T00:25:22;35.93;;;24.37;;
2562;SDS011;1291;51.420;6.970;2023-02-11T00:27:48;39.63;;;24.50;;
2562;SDS011;1291;51.420;6.970;2023-02-11T00:30:13;34.73;;;24.30;;
2562;SDS011;1291;51.420;6.970;2023-02-11T00:32:38;41.53;;;24.13;;
2562;SDS011;1291;51.420;6.970;2023-02-11T00:35:04;35.37;;;23.23;;
2562;SDS011;1291;51.420;6.970;2023-02-11T00:37:29;37.70;;;23.53;;
2562;SDS011;1291;51.420;6.970;2023-02-11T00:39:54;35.67;;;22.67;;
2562;SDS011;1291;51.420;6.970;2023-02-11T00:42:20;42.33;;;24.73;;
2562;SDS011;1291;51.420;6.970;2023-02-11T00:44:45;32.97;;;22.67;;
2562;SDS011;1291;51.420;6.970;2023-02-11T00:47:10;33.67;;;22.67;;
2562;SDS011;1291;51.420;6.970;2023-02-11T00:49:36;32.43;;;22.67;;
2562;SDS011;1291;51.420;6.970;2023-02-11T00:52:03;32.70;;;21.90;;
2562;SDS011;1291;51.420;6.970;2023-02-11T00:54:28;32.90;;;22.53;;
2562;SDS011;1291;51.420;6.970;2023-02-11T00:56:54;28.90;;;22.07;;
2562;SDS011;1291;51.420;6.970;2023-02-11T00:59:19;32.60;;;22.40;;
2562;SDS011;1291;51.420;6.970;2023-02-11T01:01:44;36.73;;;23.77;;
2562;SDS011;1291;51.420;6.970;2023-02-11T01:04:10;29.30;;;21.23;;
2562;SDS011;1291;51.420;6.970;2023-02-11T01:06:35;30.13;;;22.07;;
2562;SDS011;1291;51.420;6.970;2023-02-11T01:09:00;35.40;;;22.40;;
2562;SDS011;1291;51.420;6.970;2023-02-11T01:11:25;38.37;;;22.93;;
2562;SDS011;1291;51.420;6.970;2023-02-11T01:13:51;32.57;;;21.40;;
2562;SDS011;1291;51.420;6.970;2023-02-11T01:16:16;28.67;;;20.83;;
2562;SDS011;1291;51.420;6.970;2023-02-11T01:18:43;32.23;;;20.93;;
2562;SDS011;1291;51.420;6.970;2023-02-11T01:21:08;35.47;;;22.20;;
2562;SDS011;1291;51.420;6.970;2023-02-11T01:23:34;32.20;;;21.97;;
2562;SDS011;1291;51.420;6.970;2023-02-11T01:26:00;29.60;;;21.97;;
2562;SDS011;1291;51.420;6.970;2023-02-11T01:28:26;30.03;;;20.43;;
2562;SDS011;1291;51.420;6.970;2023-02-11T01:30:52;39.33;;;22.30;;
2562;SDS011;1291;51.420;6.970;2023-02-11T01:33:18;29.67;;;20.63;;
2562;SDS011;1291;51.420;6.970;2023-02-11T01:35:44;33.97;;;20.97;;
2562;SDS011;1291;51.420;6.970;2023-02-11T01:38:14;31.37;;;21.57;;
2562;SDS011;1291;51.420;6.970;2023-02-11T01:40:45;30.10;;;20.93;;
2562;SDS011;1291;51.420;6.970;2023-02-11T01:43:12;27.73;;;20.40;;
2562;SDS011;1291;51.420;6.970;2023-02-11T01:48:22;29.83;;;19.87;;
2562;SDS011;1291;51.420;6.970;2023-02-11T01:50:54;35.30;;;21.17;;
2562;SDS011;1291;51.420;6.970;2023-02-11T01:53:25;31.07;;;21.03;;
2562;SDS011;1291;51.420;6.970;2023-02-11T01:56:11;29.97;;;20.03;;
2562;SDS011;1291;51.420;6.970;2023-02-11T01:58:57;34.40;;;20.57;;
2562;SDS011;1291;51.420;6.970;2023-02-11T02:01:28;33.90;;;21.27;;
2562;SDS011;1291;51.420;6.970;2023-02-11T02:03:58;31.00;;;20.73;;
2562;SDS011;1291;51.420;6.970;2023-02-11T02:06:32;31.37;;;20.13;;
2562;SDS011;1291;51.420;6.970;2023-02-11T02:09:05;32.50;;;20.00;;
2562;SDS011;1291;51.420;6.970;2023-02-11T02:11:35;31.67;;;20.50;;
2562;SDS011;1291;51.420;6.970;2023-02-11T02:14:01;30.50;;;19.83;;
2562;SDS011;1291;51.420;6.970;2023-02-11T02:16:31;29.60;;;20.10;;
2562;SDS011;1291;51.420;6.970;2023-02-11T02:24:30;30.50;;;21.03;;
2562;SDS011;1291;51.420;6.970;2023-02-11T02:38:35;31.70;;;20.83;;
2562;SDS011;1291;51.420;6.970;2023-02-11T02:41:21;29.43;;;20.27;;
2562;SDS011;1291;51.420;6.970;2023-02-11T02:43:51;29.53;;;20.80;;
2562;SDS011;1291;51.420;6.970;2023-02-11T02:46:27;31.87;;;20.43;;
2562;SDS011;1291;51.420;6.970;2023-02-11T02:48:54;32.30;;;20.30;;
2562;SDS011;1291;51.420;6.970;2023-02-11T02:54:23;32.93;;;21.43;;
2562;SDS011;1291;51.420;6.970;2023-02-11T02:56:54;29.80;;;20.30;;
2562;SDS011;1291;51.420;6.970;2023-02-11T03:09:58;31.53;;;20.73;;
2562;SDS011;1291;51.420;6.970;2023-02-11T03:12:29;31.50;;;19.87;;
2562;SDS011;1291;51.420;6.970;2023-02-11T03:14:57;30.97;;;19.33;;
2562;SDS011;1291;51.420;6.970;2023-02-11T03:17:25;37.40;;;19.47;;
2562;SDS011;1291;51.420;6.970;2023-02-11T03:19:53;30.60;;;19.83;;
2562;SDS011;1291;51.420;6.970;2023-02-11T03:22:24;32.90;;;20.90;;
2562;SDS011;1291;51.420;6.970;2023-02-11T03:24:56;27.30;;;19.17;;
2562;SDS011;1291;51.420;6.970;2023-02-11T03:27:25;30.83;;;18.90;;
2562;SDS011;1291;51.420;6.970;2023-02-11T03:30:13;26.77;;;18.10;;
2562;SDS011;1291;51.420;6.970;2023-02-11T03:35:22;29.60;;;19.00;;
2562;SDS011;1291;51.420;6.970;2023-02-11T03:38:04;32.83;;;18.20;;
2562;SDS011;1291;51.420;6.970;2023-02-11T03:40:37;35.87;;;18.93;;
2562;SDS011;1291;51.420;6.970;2023-02-11T03:45:29;26.53;;;17.43;;
2562;SDS011;1291;51.420;6.970;2023-02-11T03:48:02;41.87;;;19.20;;
2562;SDS011;1291;51.420;6.970;2023-02-11T03:50:36;31.93;;;19.23;;
2562;SDS011;1291;51.420;6.970;2023-02-11T03:53:03;34.60;;;19.33;;
2562;SDS011;1291;51.420;6.970;2023-02-11T03:55:29;26.10;;;18.27;;
2562;SDS011;1291;51.420;6.970;2023-02-11T03:58:01;35.83;;;19.53;;
2562;SDS011;1291;51.420;6.970;2023-02-11T04:00:30;34.17;;;18.30;;
2562;SDS011;1291;51.420;6.970;2023-02-11T04:02:56;34.90;;;19.40;;
2562;SDS011;1291;51.420;6.970;2023-02-11T04:05:21;33.83;;;19.43;;
2562;SDS011;1291;51.420;6.970;2023-02-11T04:07:47;34.93;;;19.10;;
2562;SDS011;1291;51.420;6.970;2023-02-11T04:10:12;30.27;;;18.87;;
2562;SDS011;1291;51.420;6.970;2023-02-11T04:12:37;29.60;;;19.53;;
2562;SDS011;1291;51.420;6.970;2023-02-11T04:15:03;36.67;;;19.43;;
2562;SDS011;1291;51.420;6.970;2023-02-11T04:17:29;29.37;;;19.10;;
2562;SDS011;1291;51.420;6.970;2023-02-11T04:19:54;34.90;;;19.73;;
2562;SDS011;1291;51.420;6.970;2023-02-11T04:22:20;40.90;;;20.00;;
2562;SDS011;1291;51.420;6.970;2023-02-11T04:24:45;31.37;;;19.63;;
2562;SDS011;1291;51.420;6.970;2023-02-11T04:27:10;35.47;;;19.60;;
2562;SDS011;1291;51.420;6.970;2023-02-11T04:29:36;40.33;;;20.13;;
2562;SDS011;1291;51.420;6.970;2023-02-11T04:32:01;34.77;;;19.37;;
2562;SDS011;1291;51.420;6.970;2023-02-11T04:34:26;28.97;;;18.50;;
2562;SDS011;1291;51.420;6.970;2023-02-11T04:36:52;38.97;;;20.53;;
2562;SDS011;1291;51.420;6.970;2023-02-11T04:39:17;32.07;;;20.03;;
2562;SDS011;1291;51.420;6.970;2023-02-11T04:41:43;29.97;;;19.37;;
2562;SDS011;1291;51.420;6.970;2023-02-11T04:44:08;37.87;;;21.23;;
2562;SDS011;1291;51.420;6.970;2023-02-11T04:46:34;32.40;;;19.87;;
2562;SDS011;1291;51.420;6.970;2023-02-11T04:48:59;32.43;;;21.37;;
2562;SDS011;1291;51.420;6.970;2023-02-11T04:51:24;35.47;;;19.93;;
2562;SDS011;1291;51.420;6.970;2023-02-11T04:53:50;32.80;;;20.07;;
2562;SDS011;1291;51.420;6.970;2023-02-11T04:56:15;33.30;;;19.93;;
2562;SDS011;1291;51.420;6.970;2023-02-11T04:58:40;36.23;;;19.87;;
2562;SDS011;1291;51.420;6.970;2023-02-11T05:01:10;37.03;;;19.97;;
2562;SDS011;1291;51.420;6.970;2023-02-11T05:03:37;33.83;;;20.13;;
2562;SDS011;1291;51.420;6.970;2023-02-11T05:06:03;29.83;;;21.43;;
2562;SDS011;1291;51.420;6.970;2023-02-11T05:08:29;39.27;;;20.63;;
2562;SDS011;1291;51.420;6.970;2023-02-11T05:10:55;40.90;;;21.07;;
2562;SDS011;1291;51.420;6.970;2023-02-11T05:13:20;29.43;;;20.63;;
2562;SDS011;1291;51.420;6.970;2023-02-11T05:15:46;33.87;;;21.07;;
2562;SDS011;1291;51.420;6.970;2023-02-11T05:18:11;36.70;;;21.13;;
2562;SDS011;1291;51.420;6.970;2023-02-11T05:20:38;32.30;;;21.73;;
2562;SDS011;1291;51.420;6.970;2023-02-11T05:23:05;42.97;;;22.93;;
2562;SDS011;1291;51.420;6.970;2023-02-11T05:25:30;41.07;;;24.17;;
2562;SDS011;1291;51.420;6.970;2023-02-11T05:27:55;43.70;;;23.43;;
2562;SDS011;1291;51.420;6.970;2023-02-11T05:30:20;47.93;;;22.33;;
2562;SDS011;1291;51.420;6.970;2023-02-11T05:32:46;42.70;;;24.03;;
2562;SDS011;1291;51.420;6.970;2023-02-11T05:35:11;39.40;;;23.73;;
2562;SDS011;1291;51.420;6.970;2023-02-11T05:37:37;38.23;;;23.40;;
2562;SDS011;1291;51.420;6.970;2023-02-11T05:40:02;33.33;;;22.93;;
2562;SDS011;1291;51.420;6.970;2023-02-11T05:42:28;40.73;;;23.07;;
2562;SDS011;1291;51.420;6.970;2023-02-11T05:44:54;40.50;;;25.20;;
2562;SDS011;1291;51.420;6.970;2023-02-11T05:47:19;34.93;;;23.60;;
2562;SDS011;1291;51.420;6.970;2023-02-11T05:49:44;37.80;;;22.67;;
2562;SDS011;1291;51.420;6.970;2023-02-11T05:52:10;36.70;;;23.80;;
2562;SDS011;1291;51.420;6.970;2023-02-11T05:54:35;43.50;;;25.17;;
2562;SDS011;1291;51.420;6.970;2023-02-11T05:57:03;42.27;;;24.93;;
2562;SDS011;1291;51.420;6.970;2023-02-11T05:59:28;41.17;;;23.93;;
2562;SDS011;1291;51.420;6.970;2023-02-11T06:01:54;40.63;;;25.13;;
2562;SDS011;1291;51.420;6.970;2023-02-11T06:04:19;40.27;;;25.47;;
2562;SDS011;1291;51.420;6.970;2023-02-11T06:06:45;49.43;;;25.37;;
2562;SDS011;1291;51.420;6.970;2023-02-11T06:09:10;40.33;;;24.67;;
2562;SDS011;1291;51.420;6.970;2023-02-11T06:11:36;40.67;;;23.80;;
2562;SDS011;1291;51.420;6.970;2023-02-11T06:14:01;41.33;;;24.57;;
2562;SDS011;1291;51.420;6.970;2023-02-11T06:16:27;42.37;;;25.57;;
2562;SDS011;1291;51.420;6.970;2023-02-11T06:18:52;41.40;;;26.53;;
2562;SDS011;1291;51.420;6.970;2023-02-11T06:21:17;45.03;;;25.93;;
2562;SDS011;1291;51.420;6.970;2023-02-11T06:23:43;37.90;;;24.50;;
2562;SDS011;1291;51.420;6.970;2023-02-11T06:26:09;46.13;;;27.17;;
2562;SDS011;1291;51.420;6.970;2023-02-11T06:28:41;47.23;;;25.73;;
2562;SDS011;1291;51.420;6.970;2023-02-11T06:31:06;41.47;;;25.90;;
2562;SDS011;1291;51.420;6.970;2023-02-11T06:33:33;50.00;;;26.47;;
2562;SDS011;1291;51.420;6.970;2023-02-11T06:35:59;45.00;;;26.00;;
2562;SDS011;1291;51.420;6.970;2023-02-11T06:38:25;49.13;;;27.17;;
2562;SDS011;1291;51.420;6.970;2023-02-11T06:40:50;46.67;;;27.33;;
2562;SDS011;1291;51.420;6.970;2023-02-11T06:43:15;52.27;;;28.23;;
2562;SDS011;1291;51.420;6.970;2023-02-11T06:45:41;51.43;;;26.57;;
2562;SDS011;1291;51.420;6.970;2023-02-11T06:48:07;59.83;;;29.63;;
2562;SDS011;1291;51.420;6.970;2023-02-11T06:50:33;55.07;;;28.70;;
2562;SDS011;1291;51.420;6.970;2023-02-11T06:53:01;57.40;;;29.93;;
2562;SDS011;1291;51.420;6.970;2023-02-11T06:55:27;51.43;;;26.60;;
2562;SDS011;1291;51.420;6.970;2023-02-11T06:57:52;59.60;;;29.83;;
2562;SDS011;1291;51.420;6.970;2023-02-11T07:00:17;54.40;;;28.63;;
2562;SDS011;1291;51.420;6.970;2023-02-11T07:02:43;54.83;;;30.10;;
2562;SDS011;1291;51.420;6.970;2023-02-11T07:05:08;56.40;;;29.33;;
2562;SDS011;1291;51.420;6.970;2023-02-11T07:07:34;60.30;;;29.63;;
2562;SDS011;1291;51.420;6.970;2023-02-11T07:10:00;59.60;;;29.07;;
2562;SDS011;1291;51.420;6.970;2023-02-11T07:12:27;55.43;;;30.77;;
2562;SDS011;1291;51.420;6.970;2023-02-11T07:14:54;53.07;;;29.47;;
2562;SDS011;1291;51.420;6.970;2023-02-11T07:17:20;63.50;;;31.70;;
2562;SDS011;1291;51.420;6.970;2023-02-11T07:19:48;55.97;;;28.87;;
2562;SDS011;1291;51.420;6.970;2023-02-11T07:22:14;57.07;;;28.67;;
2562;SDS011;1291;51.420;6.970;2023-02-11T07:24:39;54.70;;;27.10;;
2562;SDS011;1291;51.420;6.970;2023-02-11T07:27:04;49.70;;;28.20;;
2562;SDS011;1291;51.420;6.970;2023-02-11T07:29:30;53.07;;;29.83;;
2562;SDS011;1291;51.420;6.970;2023-02-11T07:31:55;75.03;;;29.97;;
2562;SDS011;1291;51.420;6.970;2023-02-11T07:34:20;60.17;;;28.03;;
2562;SDS011;1291;51.420;6.970;2023-02-11T07:36:46;64.73;;;29.03;;
2562;SDS011;1291;51.420;6.970;2023-02-11T07:39:12;57.97;;;28.57;;
2562;SDS011;1291;51.420;6.970;2023-02-11T07:41:38;62.43;;;29.70;;
2562;SDS011;1291;51.420;6.970;2023-02-11T07:44:04;63.63;;;29.37;;
2562;SDS011;1291;51.420;6.970;2023-02-11T07:46:29;59.37;;;29.17;;
2562;SDS011;1291;51.420;6.970;2023-02-11T07:48:55;58.77;;;27.67;;
2562;SDS011;1291;51.420;6.970;2023-02-11T07:51:24;63.33;;;29.33;;
2562;SDS011;1291;51.420;6.970;2023-02-11T07:53:57;55.57;;;29.00;;
2562;SDS011;1291;51.420;6.970;2023-02-11T07:56:24;60.00;;;28.47;;
2562;SDS011;1291;51.420;6.970;2023-02-11T07:58:49;57.67;;;28.90;;
2562;SDS011;1291;51.420;6.970;2023-02-11T08:01:17;60.77;;;27.40;;
2562;SDS011;1291;51.420;6.970;2023-02-11T08:03:48;60.77;;;29.30;;
2562;SDS011;1291;51.420;6.970;2023-02-11T08:06:16;55.20;;;27.03;;
2562;SDS011;1291;51.420;6.970;2023-02-11T08:08:43;61.97;;;28.60;;
2562;SDS011;1291;51.420;6.970;2023-02-11T08:11:15;56.87;;;30.20;;
2562;SDS011;1291;51.420;6.970;2023-02-11T08:13:42;54.43;;;27.93;;
2562;SDS011;1291;51.420;6.970;2023-02-11T08:16:08;57.47;;;28.53;;
2562;SDS011;1291;51.420;6.970;2023-02-11T08:18:41;54.63;;;27.37;;
2562;SDS011;1291;51.420;6.970;2023-02-11T08:21:07;65.80;;;30.43;;
2562;SDS011;1291;51.420;6.970;2023-02-11T08:23:40;63.63;;;28.27;;
2562;SDS011;1291;51.420;6.970;2023-02-11T08:26:07;61.07;;;29.70;;
2562;SDS011;1291;51.420;6.970;2023-02-11T08:28:35;57.53;;;29.77;;
2562;SDS011;1291;51.420;6.970;2023-02-11T08:31:05;62.80;;;29.87;;
2562;SDS011;1291;51.420;6.970;2023-02-11T08:33:32;65.10;;;30.57;;
2562;SDS011;1291;51.420;6.970;2023-02-11T08:35:58;59.53;;;29.77;;
2562;SDS011;1291;51.420;6.970;2023-02-11T08:38:24;63.67;;;30.13;;
2562;SDS011;1291;51.420;6.970;2023-02-11T08:40:49;64.50;;;32.23;;
2562;SDS011;1291;51.420;6.970;2023-02-11T08:43:14;65.53;;;31.73;;
2562;SDS011;1291;51.420;6.970;2023-02-11T08:45:40;73.73;;;32.50;;
2562;SDS011;1291;51.420;6.970;2023-02-11T08:48:05;56.13;;;30.57;;
2562;SDS011;1291;51.420;6.970;2023-02-11T08:50:31;64.73;;;31.70;;
2562;SDS011;1291;51.420;6.970;2023-02-11T08:53:00;74.27;;;31.50;;
2562;SDS011;1291;51.420;6.970;2023-02-11T08:55:28;63.90;;;32.20;;
2562;SDS011;1291;51.420;6.970;2023-02-11T08:57:54;72.20;;;31.33;;
2562;SDS011;1291;51.420;6.970;2023-02-11T09:00:19;60.20;;;29.33;;
2562;SDS011;1291;51.420;6.970;2023-02-11T09:02:45;65.17;;;32.70;;
2562;SDS011;1291;51.420;6.970;2023-02-11T09:05:10;67.97;;;30.07;;
2562;SDS011;1291;51.420;6.970;2023-02-11T09:07:35;61.17;;;30.73;;
2562;SDS011;1291;51.420;6.970;2023-02-11T09:10:00;64.30;;;32.67;;
2562;SDS011;1291;51.420;6.970;2023-02-11T09:12:26;79.83;;;32.27;;
2562;SDS011;1291;51.420;6.970;2023-02-11T09:14:51;61.10;;;32.43;;
2562;SDS011;1291;51.420;6.970;2023-02-11T09:17:17;58.77;;;30.93;;
2562;SDS011;1291;51.420;6.970;2023-02-11T09:19:42;68.13;;;33.90;;
2562;SDS011;1291;51.420;6.970;2023-02-11T09:22:07;71.27;;;32.23;;
2562;SDS011;1291;51.420;6.970;2023-02-11T09:24:33;59.37;;;31.07;;
2562;SDS011;1291;51.420;6.970;2023-02-11T09:26:58;68.77;;;32.47;;
2562;SDS011;1291;51.420;6.970;2023-02-11T09:29:23;64.77;;;31.63;;
2562;SDS011;1291;51.420;6.970;2023-02-11T09:31:49;64.00;;;31.97;;
2562;SDS011;1291;51.420;6.970;2023-02-11T09:34:14;71.33;;;31.50;;
2562;SDS011;1291;51.420;6.970;2023-02-11T09:36:40;63.40;;;31.63;;
2562;SDS011;1291;51.420;6.970;2023-02-11T09:39:07;63.00;;;33.10;;
2562;SDS011;1291;51.420;6.970;2023-02-11T09:44:49;68.40;;;32.53;;
2562;SDS011;1291;51.420;6.970;2023-02-11T09:53:17;64.70;;;34.13;;
2562;SDS011;1291;51.420;6.970;2023-02-11T09:55:50;59.80;;;31.60;;
2562;SDS011;1291;51.420;6.970;2023-02-11T09:58:30;68.30;;;31.40;;
2562;SDS011;1291;51.420;6.970;2023-02-11T10:11:25;56.93;;;32.80;;
2562;SDS011;1291;51.420;6.970;2023-02-11T10:16:45;55.43;;;31.33;;
2562;SDS011;1291;51.420;6.970;2023-02-11T10:22:27;65.13;;;31.57;;
2562;SDS011;1291;51.420;6.970;2023-02-11T10:24:54;60.83;;;33.43;;
2562;SDS011;1291;51.420;6.970;2023-02-11T10:27:25;65.40;;;34.20;;
2562;SDS011;1291;51.420;6.970;2023-02-11T10:30:05;67.77;;;33.23;;
2562;SDS011;1291;51.420;6.970;2023-02-11T10:32:36;59.50;;;32.90;;
2562;SDS011;1291;51.420;6.970;2023-02-11T10:35:13;55.03;;;33.17;;
2562;SDS011;1291;51.420;6.970;2023-02-11T10:37:41;68.28;;;33.28;;
2562;SDS011;1291;51.420;6.970;2023-02-11T10:40:14;67.47;;;34.73;;
2562;SDS011;1291;51.420;6.970;2023-02-11T10:42:43;66.03;;;34.00;;
2562;SDS011;1291;51.420;6.970;2023-02-11T10:45:16;71.87;;;34.70;;
2562;SDS011;1291;51.420;6.970;2023-02-11T10:47:47;61.63;;;33.10;;
2562;SDS011;1291;51.420;6.970;2023-02-11T10:50:20;63.60;;;34.17;;
2562;SDS011;1291;51.420;6.970;2023-02-11T10:52:51;60.73;;;33.50;;
2562;SDS011;1291;51.420;6.970;2023-02-11T10:57:48;66.10;;;35.57;;
2562;SDS011;1291;51.420;6.970;2023-02-11T11:02:42;62.90;;;33.95;;
2562;SDS011;1291;51.420;6.970;2023-02-11T11:05:15;59.83;;;33.42;;
2562;SDS011;1291;51.420;6.970;2023-02-11T11:07:53;63.47;;;32.83;;
2562;SDS011;1291;51.420;6.970;2023-02-11T11:10:28;65.23;;;34.20;;
2562;SDS011;1291;51.420;6.970;2023-02-11T11:12:58;61.23;;;33.90;;
2562;SDS011;1291;51.420;6.970;2023-02-11T11:15:25;67.40;;;36.00;;
2562;SDS011;1291;51.420;6.970;2023-02-11T11:20:40;57.53;;;35.38;;
2562;SDS011;1291;51.420;6.970;2023-02-11T11:23:20;63.17;;;35.17;;
2562;SDS011;1291;51.420;6.970;2023-02-11T11:26:07;67.27;;;36.30;;
2562;SDS011;1291;51.420;6.970;2023-02-11T11:28:42;63.42;;;35.72;;
2562;SDS011;1291;51.420;6.970;2023-02-11T11:31:17;59.63;;;35.73;;
2562;SDS011;1291;51.420;6.970;2023-02-11T11:33:48;68.13;;;35.83;;
2562;SDS011;1291;51.420;6.970;2023-02-11T11:36:20;60.37;;;35.47;;
2562;SDS011;1291;51.420;6.970;2023-02-11T11:38:52;63.13;;;37.00;;
2562;SDS011;1291;51.420;6.970;2023-02-11T11:46:26;71.80;;;38.90;;
2562;SDS011;1291;51.420;6.970;2023-02-11T11:49:02;65.50;;;39.47;;
2562;SDS011;1291;51.420;6.970;2023-02-11T11:51:57;67.35;;;37.33;;
2562;SDS011;1291;51.420;6.970;2023-02-11T11:54:50;65.03;;;37.87;;
2562;SDS011;1291;51.420;6.970;2023-02-11T11:57:25;68.82;;;38.53;;
2562;SDS011;1291;51.420;6.970;2023-02-11T11:59:53;70.13;;;37.73;;
2562;SDS011;1291;51.420;6.970;2023-02-11T12:04:57;67.67;;;40.13;;
2562;SDS011;1291;51.420;6.970;2023-02-11T12:13:39;66.27;;;39.83;;
2562;SDS011;1291;51.420;6.970;2023-02-11T12:27:02;70.10;;;37.72;;
2562;SDS011;1291;51.420;6.970;2023-02-11T12:32:33;61.03;;;37.00;;
2562;SDS011;1291;51.420;6.970;2023-02-11T12:35:37;67.57;;;37.67;;
2562;SDS011;1291;51.420;6.970;2023-02-11T12:41:16;67.17;;;37.90;;
2562;SDS011;1291;51.420;6.970;2023-02-11T12:50:31;66.27;;;37.47;;
2562;SDS011;1291;51.420;6.970;2023-02-11T12:53:24;66.97;;;36.90;;
2562;SDS011;1291;51.420;6.970;2023-02-11T12:56:00;71.85;;;38.13;;
2562;SDS011;1291;51.420;6.970;2023-02-11T12:58:49;77.23;;;37.50;;
2562;SDS011;1291;51.420;6.970;2023-02-11T13:01:22;67.97;;;36.67;;
2562;SDS011;1291;51.420;6.970;2023-02-11T13:04:05;66.10;;;37.20;;
2562;SDS011;1291;51.420;6.970;2023-02-11T13:06:40;71.75;;;37.08;;
2562;SDS011;1291;51.420;6.970;2023-02-11T13:09:16;67.72;;;37.15;;
2562;SDS011;1291;51.420;6.970;2023-02-11T13:11:48;69.28;;;37.47;;
2562;SDS011;1291;51.420;6.970;2023-02-11T13:14:22;64.93;;;36.97;;
2562;SDS011;1291;51.420;6.970;2023-02-11T13:16:51;63.92;;;36.65;;
2562;SDS011;1291;51.420;6.970;2023-02-11T13:27:29;64.97;;;36.90;;
2562;SDS011;1291;51.420;6.970;2023-02-11T13:38:01;58.15;;;34.33;;
2562;SDS011;1291;51.420;6.970;2023-02-11T13:40:35;65.20;;;37.05;;
2562;SDS011;1291;51.420;6.970;2023-02-11T13:43:04;61.33;;;36.45;;
2562;SDS011;1291;51.420;6.970;2023-02-11T13:45:47;62.53;;;34.88;;
2562;SDS011;1291;51.420;6.970;2023-02-11T13:48:14;63.42;;;34.58;;
2562;SDS011;1291;51.420;6.970;2023-02-11T13:50:55;62.95;;;34.20;;
2562;SDS011;1291;51.420;6.970;2023-02-11T13:53:24;62.67;;;34.35;;
2562;SDS011;1291;51.420;6.970;2023-02-11T13:55:52;54.83;;;32.90;;
2562;SDS011;1291;51.420;6.970;2023-02-11T13:58:32;58.60;;;34.42;;
2562;SDS011;1291;51.420;6.970;2023-02-11T14:01:03;64.57;;;35.67;;
2562;SDS011;1291;51.420;6.970;2023-02-11T14:03:30;57.72;;;34.10;;
2562;SDS011;1291;51.420;6.970;2023-02-11T14:14:10;61.28;;;37.10;;
2562;SDS011;1291;51.420;6.970;2023-02-11T14:20:31;59.30;;;35.60;;
2562;SDS011;1291;51.420;6.970;2023-02-11T14:22:39;63.95;;;36.20;;
2562;SDS011;1291;51.420;6.970;2023-02-11T14:25:26;59.90;;;34.15;;
2562;SDS011;1291;51.420;6.970;2023-02-11T14:27:55;64.00;;;35.13;;
2562;SDS011;1291;51.420;6.970;2023-02-11T14:36:17;57.75;;;34.22;;
2562;SDS011;1291;51.420;6.970;2023-02-11T14:39:07;62.60;;;33.63;;
2562;SDS011;1291;51.420;6.970;2023-02-11T14:41:43;57.72;;;33.10;;
2562;SDS011;1291;51.420;6.970;2023-02-11T14:44:13;57.28;;;33.80;;
2562;SDS011;1291;51.420;6.970;2023-02-11T14:46:45;69.30;;;34.17;;
2562;SDS011;1291;51.420;6.970;2023-02-11T14:49:20;56.35;;;33.58;;
2562;SDS011;1291;51.420;6.970;2023-02-11T14:51:51;59.53;;;33.42;;
2562;SDS011;1291;51.420;6.970;2023-02-11T14:54:25;54.17;;;32.65;;
2562;SDS011;1291;51.420;6.970;2023-02-11T14:59:35;61.83;;;35.85;;
2562;SDS011;1291;51.420;6.970;2023-02-11T15:02:01;58.17;;;35.63;;
2562;SDS011;1291;51.420;6.970;2023-02-11T15:04:27;60.45;;;35.65;;
2562;SDS011;1291;51.420;6.970;2023-02-11T15:06:55;61.03;;;34.30;;
2562;SDS011;1291;51.420;6.970;2023-02-11T15:10:05;66.78;;;35.17;;
2562;SDS011;1291;51.420;6.970;2023-02-11T15:12:23;59.72;;;33.58;;
2562;SDS011;1291;51.420;6.970;2023-02-11T15:14:51;50.08;;;31.98;;
2562;SDS011;1291;51.420;6.970;2023-02-11T15:17:23;55.15;;;32.00;;
2562;SDS011;1291;51.420;6.970;2023-02-11T15:19:58;51.47;;;31.27;;
2562;SDS011;1291;51.420;6.970;2023-02-11T15:22:27;53.03;;;31.17;;
2562;SDS011;1291;51.420;6.970;2023-02-11T15:27:38;52.53;;;32.78;;
2562;SDS011;1291;51.420;6.970;2023-02-11T15:32:49;51.97;;;31.60;;
2562;SDS011;1291;51.420;6.970;2023-02-11T15:35:31;60.75;;;34.53;;
2562;SDS011;1291;51.420;6.970;2023-02-11T15:38:00;56.50;;;33.67;;
2562;SDS011;1291;51.420;6.970;2023-02-11T15:40:27;56.95;;;34.17;;
2562;SDS011;1291;51.420;6.970;2023-02-11T15:42:57;52.55;;;32.67;;
2562;SDS011;1291;51.420;6.970;2023-02-11T15:51:07;54.83;;;32.13;;
2562;SDS011;1291;51.420;6.970;2023-02-11T15:53:42;50.15;;;33.03;;
2562;SDS011;1291;51.420;6.970;2023-02-11T15:58:51;55.70;;;33.67;;
2562;SDS011;1291;51.420;6.970;2023-02-11T16:01:30;56.35;;;33.10;;
2562;SDS011;1291;51.420;6.970;2023-02-11T16:03:58;54.08;;;33.65;;
2562;SDS011;1291;51.420;6.970;2023-02-11T16:06:25;61.58;;;35.28;;
2562;SDS011;1291;51.420;6.970;2023-02-11T16:09:20;60.30;;;34.20;;
2562;SDS011;1291;51.420;6.970;2023-02-11T16:16:52;56.22;;;34.13;;
2562;SDS011;1291;51.420;6.970;2023-02-11T16:19:20;51.97;;;32.35;;
2562;SDS011;1291;51.420;6.970;2023-02-11T16:21:51;57.53;;;34.40;;
2562;SDS011;1291;51.420;6.970;2023-02-11T16:24:31;55.60;;;33.88;;
2562;SDS011;1291;51.420;6.970;2023-02-11T16:26:59;54.60;;;33.03;;
2562;SDS011;1291;51.420;6.970;2023-02-11T16:29:27;57.50;;;32.78;;
2562;SDS011;1291;51.420;6.970;2023-02-11T16:32:04;59.33;;;33.70;;
2562;SDS011;1291;51.420;6.970;2023-02-11T16:34:34;58.60;;;33.95;;
2562;SDS011;1291;51.420;6.970;2023-02-11T16:37:01;50.38;;;31.65;;
2562;SDS011;1291;51.420;6.970;2023-02-11T16:39:28;54.30;;;32.75;;
2562;SDS011;1291;51.420;6.970;2023-02-11T16:41:53;58.38;;;32.80;;
2562;SDS011;1291;51.420;6.970;2023-02-11T16:44:26;56.05;;;32.03;;
2562;SDS011;1291;51.420;6.970;2023-02-11T16:46:52;60.60;;;32.10;;
2562;SDS011;1291;51.420;6.970;2023-02-11T16:51:50;51.42;;;30.95;;
2562;SDS011;1291;51.420;6.970;2023-02-11T16:54:17;59.05;;;31.77;;
2562;SDS011;1291;51.420;6.970;2023-02-11T16:56:47;58.75;;;31.60;;
2562;SDS011;1291;51.420;6.970;2023-02-11T16:59:13;55.50;;;31.60;;
2562;SDS011;1291;51.420;6.970;2023-02-11T17:01:39;52.42;;;31.45;;
2562;SDS011;1291;51.420;6.970;2023-02-11T17:04:10;58.97;;;34.67;;
2562;SDS011;1291;51.420;6.970;2023-02-11T17:06:42;55.30;;;32.38;;
2562;SDS011;1291;51.420;6.970;2023-02-11T17:09:09;54.97;;;31.52;;
2562;SDS011;1291;51.420;6.970;2023-02-11T17:11:41;50.60;;;32.38;;
2562;SDS011;1291;51.420;6.970;2023-02-11T17:14:07;50.22;;;31.52;;
2562;SDS011;1291;51.420;6.970;2023-02-11T17:16:32;54.80;;;32.97;;
2562;SDS011;1291;51.420;6.970;2023-02-11T17:19:00;59.03;;;33.60;;
2562;SDS011;1291;51.420;6.970;2023-02-11T17:21:26;55.17;;;32.40;;
2562;SDS011;1291;51.420;6.970;2023-02-11T17:23:51;55.05;;;32.08;;
2562;SDS011;1291;51.420;6.970;2023-02-11T17:26:17;60.50;;;34.33;;
2562;SDS011;1291;51.420;6.970;2023-02-11T17:28:42;55.10;;;34.50;;
2562;SDS011;1291;51.420;6.970;2023-02-11T17:31:07;59.22;;;34.10;;
2562;SDS011;1291;51.420;6.970;2023-02-11T17:33:33;54.60;;;33.28;;
2562;SDS011;1291;51.420;6.970;2023-02-11T17:35:59;58.08;;;33.50;;
2562;SDS011;1291;51.420;6.970;2023-02-11T17:38:28;58.60;;;37.30;;
2562;SDS011;1291;51.420;6.970;2023-02-11T17:40:57;51.70;;;34.22;;
2562;SDS011;1291;51.420;6.970;2023-02-11T17:43:26;56.28;;;34.33;;
2562;SDS011;1291;51.420;6.970;2023-02-11T17:45:52;56.35;;;34.47;;